Time;durP1;ratioP1;P1;durP2;ratioP2;P2;SDS_P1;SDS_P2;PMS_P1;PMS_P2;Temp;Humidity;BMP_temperature;BMP_pressure;BME280_temperature;BME280_humidity;BME280_pressure;Samples;Min_cycle;Max_cycle;Signal;HPM_P1;HPM_P2
2021/08/22 00:00:50;;;;;;;11.68;7.80;;;;;;;20.55;46.57;99273.48;2190156;81;21003;-82
2021/08/22 00:03:51;;;;;;;8.05;7.35;;;;;;;18.72;49.00;99272.22;2190440;81;20976;-82
2021/08/22 00:06:52;;;;;;;10.18;7.33;;;;;;;17.45;51.37;99274.05;2190361;81;20960;-82
2021/08/22 00:09:52;;;;;;;8.73;6.90;;;;;;;16.54;53.43;99284.75;2190469;81;20948;-82
2021/08/22 00:12:53;;;;;;;7.90;7.10;;;;;;;15.87;55.27;99283.66;2190387;81;20999;-82
2021/08/22 00:15:54;;;;;;;8.53;7.05;;;;;;;15.36;56.80;99286.30;2190335;81;21035;-82
2021/08/22 00:18:54;;;;;;;10.30;6.92;;;;;;;14.85;58.15;99274.44;2190112;81;21004;-82
2021/08/22 00:21:55;;;;;;;9.43;7.05;;;;;;;14.45;59.51;99272.13;2189405;81;21674;-82
2021/08/22 00:24:55;;;;;;;10.15;7.67;;;;;;;14.13;60.68;99277.66;2190098;81;20964;-82
2021/08/22 00:27:56;;;;;;;9.23;7.30;;;;;;;13.89;61.46;99277.11;2189882;81;20988;-82
2021/08/22 00:30:56;;;;;;;9.18;8.00;;;;;;;13.67;62.43;99274.77;2190064;81;20999;-82
2021/08/22 00:33:57;;;;;;;11.65;7.72;;;;;;;13.53;63.10;99273.36;2190251;81;20944;-82
2021/08/22 00:36:57;;;;;;;8.30;6.95;;;;;;;13.46;64.00;99270.69;2190728;81;21339;-81
2021/08/22 00:39:58;;;;;;;11.73;8.30;;;;;;;13.37;64.59;99271.06;2190188;81;20967;-81
2021/08/22 00:42:59;;;;;;;10.65;8.13;;;;;;;13.31;65.31;99271.02;2189728;81;20964;-82
2021/08/22 00:46:02;;;;;;;8.13;7.12;;;;;;;13.31;65.31;99271.02;2189533;81;21447;-82
2021/08/22 00:49:03;;;;;;;8.80;7.57;;;;;;;13.25;66.32;99270.09;2190137;81;20992;-82
2021/08/22 00:52:03;;;;;;;10.93;7.65;;;;;;;13.22;66.55;99270.95;2190294;81;21086;-81
2021/08/22 00:58:06;;;;;;;9.50;7.55;;;;;;;13.25;67.44;99272.28;2173858;81;20991;-82
2021/08/22 01:01:06;;;;;;;9.23;8.10;;;;;;;13.26;67.78;99267.91;2189812;81;20963;-82
2021/08/22 01:04:07;;;;;;;9.68;8.55;;;;;;;13.28;67.92;99272.30;2190096;81;20968;-81
2021/08/22 01:07:08;;;;;;;10.60;7.35;;;;;;;13.33;68.40;99271.03;2190451;81;20975;-82
2021/08/22 01:10:08;;;;;;;11.12;7.83;;;;;;;13.32;68.64;99262.72;2190520;81;20935;-82
2021/08/22 01:13:08;;;;;;;11.85;7.60;;;;;;;13.32;69.05;99264.91;2190384;81;20967;-81
2021/08/22 01:16:09;;;;;;;9.48;7.67;;;;;;;13.31;69.26;99255.29;2190375;81;21031;-82
2021/08/22 01:19:10;;;;;;;13.48;7.70;;;;;;;13.30;69.51;99258.78;2190415;81;20984;-81
2021/08/22 01:22:10;;;;;;;14.03;7.80;;;;;;;13.31;69.89;99259.66;2190404;81;20991;-81
2021/08/22 01:25:10;;;;;;;9.15;7.25;;;;;;;13.33;70.10;99258.80;2190466;81;20932;-81
2021/08/22 01:28:11;;;;;;;11.73;7.85;;;;;;;13.37;70.37;99263.63;2190253;81;20967;-81
2021/08/22 01:31:11;;;;;;;8.40;7.20;;;;;;;13.38;70.44;99261.02;2190503;81;21022;-82
2021/08/22 01:34:12;;;;;;;9.13;7.42;;;;;;;13.42;70.69;99254.05;2190901;81;21336;-81
2021/08/22 01:37:13;;;;;;;15.85;8.45;;;;;;;13.41;70.74;99252.30;2190793;81;21010;-82
2021/08/22 01:40:13;;;;;;;10.53;7.60;;;;;;;13.43;70.94;99251.88;2190635;81;20967;-82
2021/08/22 01:43:14;;;;;;;17.00;9.53;;;;;;;13.46;71.27;99250.58;2190498;81;20964;-81
2021/08/22 01:46:14;;;;;;;10.32;9.23;;;;;;;13.49;71.78;99257.16;2174893;81;21443;-82
2021/08/22 01:49:15;;;;;;;10.98;8.10;;;;;;;13.55;72.08;99251.95;2173805;82;20953;-82
2021/08/22 01:52:15;;;;;;;11.70;8.63;;;;;;;13.59;72.04;99255.04;2174082;82;20933;-81
2021/08/22 01:55:16;;;;;;;9.70;8.10;;;;;;;13.61;71.94;99252.42;2173796;81;21008;-81
2021/08/22 01:58:16;;;;;;;10.95;8.43;;;;;;;13.63;72.00;99246.75;2173466;81;20996;-82
2021/08/22 02:01:17;;;;;;;15.32;9.10;;;;;;;13.63;72.20;99246.32;2174236;82;21736;-81
2021/08/22 02:04:17;;;;;;;9.80;8.18;;;;;;;13.66;72.62;99242.84;2174088;81;20926;-82
2021/08/22 02:07:18;;;;;;;9.60;8.33;;;;;;;13.69;72.63;99249.41;2174409;82;20981;-82
2021/08/22 02:10:18;;;;;;;10.70;8.65;;;;;;;13.69;72.76;99243.73;2174255;82;20964;-81
2021/08/22 02:13:19;;;;;;;10.55;9.55;;;;;;;13.74;73.07;99246.38;2174561;81;20960;-82
2021/08/22 02:16:19;;;;;;;12.05;9.55;;;;;;;13.80;73.44;99243.79;2174364;81;21027;-82
2021/08/22 02:19:20;;;;;;;12.00;9.10;;;;;;;13.89;73.72;99242.99;2173634;81;21006;-82
2021/08/22 02:22:20;;;;;;;11.85;8.98;;;;;;;13.96;73.53;99240.84;2174188;81;21007;-82
2021/08/22 02:25:21;;;;;;;11.30;7.37;;;;;;;14.02;73.52;99239.12;2173822;82;21011;-81
2021/08/22 02:28:21;;;;;;;8.23;7.40;;;;;;;14.06;73.41;99239.13;2174292;81;20940;-82
2021/08/22 02:31:22;;;;;;;8.75;7.47;;;;;;;14.06;73.22;99239.13;2174083;82;20968;-81
2021/08/22 02:34:22;;;;;;;11.35;7.42;;;;;;;14.05;73.19;99234.75;2174219;82;20956;-81
2021/08/22 02:37:23;;;;;;;14.30;8.53;;;;;;;14.03;73.36;99229.06;2174159;82;21380;-81
2021/08/22 02:40:23;;;;;;;9.40;8.20;;;;;;;14.05;73.70;99229.50;2174036;82;21003;-81
2021/08/22 02:43:24;;;;;;;11.85;8.58;;;;;;;14.07;73.83;99224.70;2173926;81;20977;-82
2021/08/22 02:46:24;;;;;;;8.73;7.60;;;;;;;14.11;74.00;99226.91;2188397;81;21015;-82
2021/08/22 02:49:25;;;;;;;10.60;8.50;;;;;;;14.11;73.93;99223.84;2190769;81;20994;-82
2021/08/22 02:52:25;;;;;;;9.48;7.67;;;;;;;14.13;74.22;99220.78;2191064;81;21332;-82
2021/08/22 02:55:27;;;;;;;11.80;8.25;;;;;;;14.15;74.05;99219.04;2190763;81;20997;-82
2021/08/22 02:58:27;;;;;;;8.30;7.25;;;;;;;14.18;74.15;99212.92;2190719;81;20980;-82
2021/08/22 03:01:28;;;;;;;10.68;8.05;;;;;;;14.16;74.04;99212.05;2190625;81;20948;-82
2021/08/22 03:04:28;;;;;;;15.23;12.78;;;;;;;14.20;74.12;99209.87;2190558;81;20917;-82
2021/08/22 03:07:29;;;;;;;14.85;11.43;;;;;;;14.22;74.33;99210.31;2190564;81;20929;-83
2021/08/22 03:10:29;;;;;;;11.18;9.80;;;;;;;14.34;76.82;99213.41;2190316;81;20936;-82
2021/08/22 03:13:30;;;;;;;17.02;9.75;;;;;;;16.38;77.57;99194.78;2190313;81;20999;-83
2021/08/22 03:16:30;;;;;;;9.55;8.65;;;;;;;18.42;72.71;99197.28;2189998;81;21023;-82
2021/08/22 03:19:31;;;;;;;8.93;8.03;;;;;;;19.86;68.40;99191.36;2190658;81;21113;-84
2021/08/22 03:22:31;;;;;;;10.78;7.92;;;;;;;20.81;64.65;99183.60;2190448;81;20936;-83
2021/08/22 03:25:32;;;;;;;9.73;7.97;;;;;;;21.49;62.11;99185.44;2190436;81;20968;-83
2021/08/22 03:28:32;;;;;;;8.73;7.50;;;;;;;21.97;60.34;99176.59;2190494;81;21039;-83
2021/08/22 03:31:33;;;;;;;10.18;7.75;;;;;;;22.36;58.15;99175.89;2190455;81;20979;-82
2021/08/22 03:34:33;;;;;;;10.38;7.78;;;;;;;22.62;56.78;99173.78;2190468;81;20933;-83
2021/08/22 03:37:34;;;;;;;9.25;7.00;;;;;;;22.87;55.90;99168.57;2190631;81;21023;-83
2021/08/22 03:40:34;;;;;;;8.65;7.20;;;;;;;23.08;54.88;99173.64;2190776;81;20944;-82
2021/08/22 03:43:35;;;;;;;8.28;7.12;;;;;;;23.08;53.88;99176.30;2190479;81;20944;-83
2021/08/22 03:46:35;;;;;;;9.43;6.92;;;;;;;22.94;53.59;99174.10;2190183;81;20983;-83
2021/08/22 03:49:36;;;;;;;11.60;7.87;;;;;;;22.97;53.45;99175.33;2190557;81;20932;-83
2021/08/22 03:52:36;;;;;;;10.30;6.60;;;;;;;22.98;53.24;99171.75;2191127;81;20952;-83
2021/08/22 03:55:37;;;;;;;9.85;7.15;;;;;;;23.09;52.92;99173.59;2190663;81;20913;-82
2021/08/22 03:58:38;;;;;;;8.58;7.00;;;;;;;23.17;52.58;99169.34;2189889;81;21015;-83
2021/08/22 04:01:38;;;;;;;231.38;197.85;;;;;;;23.25;52.15;99170.41;2190544;81;20956;-81
2021/08/22 04:04:39;;;;;;;14.10;12.55;;;;;;;23.41;51.37;99172.52;2190484;81;21363;-82
2021/08/22 04:07:45;;;;;;;13.75;11.43;;;;;;;23.00;50.91;99177.89;2190629;81;20970;-84
2021/08/22 04:10:43;;;;;;;11.43;10.30;;;;;;;22.62;51.57;99171.58;2190219;81;21048;-85
2021/08/22 04:13:43;;;;;;;16.42;13.65;;;;;;;22.28;52.03;99179.70;2190901;81;21003;-83
2021/08/22 04:16:44;;;;;;;9.88;8.98;;;;;;;22.00;52.68;99184.47;2190531;81;21016;-82
2021/08/22 04:19:44;;;;;;;11.50;9.75;;;;;;;21.69;53.17;99183.59;2190531;81;21402;-83
2021/08/22 04:22:44;;;;;;;11.80;10.60;;;;;;;21.49;53.48;99178.34;2190099;81;20983;-85
2021/08/22 04:25:45;;;;;;;11.95;10.08;;;;;;;21.33;54.03;99177.01;2190952;81;21043;-84
2021/08/22 04:28:46;;;;;;;9.60;8.65;;;;;;;21.30;54.57;99192.56;2190707;81;20964;-84
2021/08/22 04:31:46;;;;;;;15.08;9.18;;;;;;;21.31;54.71;99190.78;2191258;81;20933;-82
2021/08/22 04:34:47;;;;;;;10.45;9.38;;;;;;;21.36;54.85;99186.68;2190913;81;20968;-83
2021/08/22 04:37:47;;;;;;;22.22;15.93;;;;;;;21.28;54.89;99194.84;2191168;81;20988;-85
2021/08/22 04:40:48;;;;;;;18.32;12.10;;;;;;;21.26;54.85;99194.02;2191291;81;20916;-83
2021/08/22 04:43:51;;;;;;;18.73;8.63;;;;;;;21.15;54.79;99192.05;2190809;81;20968;-82
2021/08/22 04:46:51;;;;;;;9.93;8.48;;;;;;;20.86;55.14;99190.99;2139510;83;21114;-84
2021/08/22 04:49:52;;;;;;;23.25;8.80;;;;;;;20.64;55.24;99185.75;2139058;83;20992;-82
2021/08/22 04:52:52;;;;;;;15.50;8.90;;;;;;;20.50;55.98;99193.15;2138725;83;20964;-83
2021/08/22 04:55:55;;;;;;;72.22;56.75;;;;;;;20.44;56.36;99188.86;2138968;83;21375;-83
2021/08/22 04:58:56;;;;;;;14.78;10.63;;;;;;;20.39;56.34;99193.39;2183444;81;20969;-84
2021/08/22 05:01:56;;;;;;;18.92;10.58;;;;;;;20.30;56.44;99186.94;2183564;82;21000;-82
2021/08/22 05:04:57;;;;;;;13.75;9.00;;;;;;;20.29;56.76;99190.49;2182995;82;20991;-82
2021/08/22 05:07:58;;;;;;;11.73;8.85;;;;;;;20.29;57.10;99191.36;2183883;82;20964;-82
2021/08/22 05:10:59;;;;;;;9.68;8.68;;;;;;;20.17;56.97;99188.98;2183443;81;20921;-82
2021/08/22 05:13:59;;;;;;;11.20;9.20;;;;;;;20.24;57.20;99191.92;2183691;82;20961;-82
2021/08/22 05:17:00;;;;;;;11.70;8.95;;;;;;;20.10;57.28;99190.47;2183280;81;20968;-82
2021/08/22 05:20:00;;;;;;;10.82;8.70;;;;;;;20.11;57.34;99193.09;2183553;82;20941;-82
2021/08/22 05:23:01;;;;;;;9.98;8.80;;;;;;;20.26;57.45;99188.78;2183610;81;20932;-82
2021/08/22 05:26:01;;;;;;;11.70;8.15;;;;;;;20.51;57.20;99192.24;2183738;82;20956;-83
2021/08/22 05:29:02;;;;;;;12.35;8.95;;;;;;;20.70;56.98;99191.36;2183715;81;20949;-82
2021/08/22 05:32:04;;;;;;;13.10;8.53;;;;;;;20.99;56.68;99184.48;2183917;81;20956;-82
2021/08/22 05:35:04;;;;;;;9.18;8.28;;;;;;;21.28;56.08;99186.88;2183599;82;20996;-82
2021/08/22 05:38:05;;;;;;;8.75;7.83;;;;;;;21.49;55.64;99189.42;2183731;82;21004;-82
2021/08/22 05:41:05;;;;;;;10.08;8.75;;;;;;;21.70;55.22;99192.86;2183863;81;20991;-83
2021/08/22 05:44:06;;;;;;;9.53;7.95;;;;;;;21.85;54.65;99188.44;2183405;81;20972;-82
2021/08/22 05:47:06;;;;;;;9.45;8.45;;;;;;;21.90;54.24;99190.97;2189153;81;21043;-82
2021/08/22 05:50:07;;;;;;;10.15;7.83;;;;;;;21.94;54.64;99195.28;2190037;81;21015;-81
2021/08/22 05:53:07;;;;;;;11.65;8.40;;;;;;;22.05;54.72;99193.22;2190007;81;20996;-81
2021/08/22 05:56:09;;;;;;;11.93;9.18;;;;;;;22.14;54.53;99192.95;2190365;81;21071;-81
2021/08/22 05:59:09;;;;;;;11.68;9.15;;;;;;;22.28;54.34;99193.00;2190161;81;20987;-81
2021/08/22 06:02:10;;;;;;;12.20;9.53;;;;;;;22.21;53.87;99185.20;2190325;81;20976;-83
2021/08/22 06:05:10;;;;;;;10.55;8.83;;;;;;;22.13;54.20;99184.56;2189791;81;21355;-82
2021/08/22 06:08:11;;;;;;;11.68;8.78;;;;;;;22.13;54.68;99185.89;2190198;81;21035;-83
2021/08/22 06:11:11;;;;;;;10.53;8.65;;;;;;;22.23;54.21;99184.70;2190509;81;20968;-82
2021/08/22 06:14:12;;;;;;;10.32;8.40;;;;;;;22.29;54.37;99180.11;2190490;81;20933;-82
2021/08/22 06:17:12;;;;;;;13.95;8.05;;;;;;;22.20;53.79;99181.27;2190296;81;20972;-82
2021/08/22 06:20:13;;;;;;;10.32;8.85;;;;;;;22.13;54.03;99177.91;2190169;81;20961;-82
2021/08/22 06:23:13;;;;;;;12.18;9.65;;;;;;;22.20;53.60;99184.79;2190265;81;21363;-82
2021/08/22 06:26:14;;;;;;;10.15;8.85;;;;;;;22.07;53.03;99183.41;2190587;81;20936;-81
2021/08/22 06:29:14;;;;;;;10.13;8.73;;;;;;;21.96;53.74;99184.15;2190525;81;20956;-81
2021/08/22 06:32:15;;;;;;;9.40;8.48;;;;;;;21.98;54.26;99178.79;2190395;81;21009;-82
2021/08/22 06:35:15;;;;;;;12.18;8.93;;;;;;;22.07;53.73;99175.44;2190629;81;21261;-83
2021/08/22 06:38:16;;;;;;;9.73;8.70;;;;;;;22.11;53.66;99178.87;2190529;81;20972;-81
2021/08/22 06:41:16;;;;;;;10.00;8.25;;;;;;;21.97;54.12;99171.73;2190306;81;21370;-83
2021/08/22 06:44:17;;;;;;;10.60;8.88;;;;;;;21.92;54.27;99171.86;2190194;81;20979;-83
2021/08/22 06:47:17;;;;;;;11.40;8.68;;;;;;;22.13;54.49;99171.27;2176036;81;21067;-81
2021/08/22 06:50:18;;;;;;;12.60;8.65;;;;;;;22.31;53.90;99168.52;2173467;82;20937;-83
2021/08/22 06:53:18;;;;;;;9.23;8.33;;;;;;;22.49;54.05;99163.08;2173244;81;20953;-81
2021/08/22 06:56:19;;;;;;;10.43;8.30;;;;;;;22.97;53.17;99166.02;2173511;82;20992;-82
2021/08/22 06:59:19;;;;;;;9.73;8.78;;;;;;;23.14;53.06;99168.98;2173938;81;20980;-82
2021/08/22 07:02:20;;;;;;;10.05;8.85;;;;;;;23.43;53.15;99172.00;2174074;81;20976;-82
2021/08/22 07:05:20;;;;;;;8.68;7.83;;;;;;;23.75;52.01;99170.02;2174175;81;20933;-81
2021/08/22 07:08:21;;;;;;;9.03;8.13;;;;;;;23.81;52.33;99169.33;2174059;82;20980;-81
2021/08/22 07:11:22;;;;;;;8.60;7.55;;;;;;;24.14;52.05;99165.86;2173798;82;21024;-82
2021/08/22 07:14:22;;;;;;;12.30;8.68;;;;;;;24.38;51.53;99168.58;2174627;81;20987;-83
2021/08/22 07:17:23;;;;;;;9.85;8.83;;;;;;;24.43;50.94;99173.27;2174266;82;21415;-81
2021/08/22 07:20:23;;;;;;;9.28;8.38;;;;;;;24.54;50.94;99172.84;2174356;81;20981;-81
2021/08/22 07:23:24;;;;;;;14.05;7.83;;;;;;;24.86;49.89;99167.55;2174861;81;21039;-84
2021/08/22 07:26:24;;;;;;;9.53;8.63;;;;;;;24.90;49.85;99165.16;2174277;81;20964;-81
2021/08/22 07:29:25;;;;;;;11.03;8.38;;;;;;;24.65;50.02;99166.15;2174466;82;20980;-82
2021/08/22 07:32:31;;;;;;;9.28;8.13;;;;;;;24.80;49.90;99166.46;2174560;81;20991;-82
2021/08/22 07:35:32;;;;;;;10.08;8.10;;;;;;;24.96;50.13;99166.23;2173704;81;21000;-82
2021/08/22 07:38:32;;;;;;;9.13;7.95;;;;;;;24.94;49.66;99166.77;2173922;82;21004;-82
2021/08/22 07:41:33;;;;;;;9.60;8.73;;;;;;;25.04;49.75;99172.16;2174481;81;20928;-82
2021/08/22 07:44:33;;;;;;;9.45;8.55;;;;;;;25.07;49.47;99171.56;2174133;81;20988;-81
2021/08/22 07:47:34;;;;;;;8.78;7.87;;;;;;;25.13;49.23;99166.89;2173511;82;21027;-82
2021/08/22 07:50:34;;;;;;;12.07;8.68;;;;;;;25.08;49.45;99169.30;2173580;81;20937;-82
2021/08/22 07:53:36;;;;;;;8.68;7.78;;;;;;;25.39;49.63;99172.03;2174189;81;20924;-82
2021/08/22 07:56:37;;;;;;;9.60;8.65;;;;;;;25.63;48.94;99172.77;2174404;81;20980;-81
2021/08/22 07:59:37;;;;;;;8.40;7.55;;;;;;;25.71;48.91;99174.19;2174185;81;20979;-82
2021/08/22 08:02:38;;;;;;;8.95;8.20;;;;;;;25.67;47.95;99173.06;2174176;82;21423;-82
2021/08/22 08:05:41;;;;;;;12.03;7.97;;;;;;;25.56;48.19;99167.28;2174423;81;20929;-83
2021/08/22 08:08:41;;;;;;;;;;;;;;;25.63;48.38;99169.62;2177006;82;21059;-81
2021/08/22 08:11:44;;;;;;;9.85;8.45;;;;;;;25.67;48.28;99171.72;2174689;81;20200;-83
2021/08/22 08:14:45;;;;;;;8.85;8.00;;;;;;;25.89;48.58;99176.51;2174617;81;21028;-82
2021/08/22 08:17:45;;;;;;;9.53;8.55;;;;;;;26.23;47.65;99171.84;2174378;81;21079;-82
2021/08/22 08:20:46;;;;;;;8.78;7.92;;;;;;;26.33;47.58;99172.31;2174471;82;20984;-81
2021/08/22 08:23:46;;;;;;;8.63;7.42;;;;;;;26.45;46.90;99170.87;2174880;81;20980;-82
2021/08/22 08:26:47;;;;;;;9.90;8.78;;;;;;;26.58;46.52;99168.00;2174488;82;20941;-83
2021/08/22 08:29:47;;;;;;;10.03;9.05;;;;;;;26.71;45.95;99168.27;2174399;81;20988;-81
2021/08/22 08:32:48;;;;;;;8.55;7.85;;;;;;;26.88;46.20;99171.02;2174400;82;20981;-81
2021/08/22 08:35:48;;;;;;;9.90;8.55;;;;;;;27.07;45.02;99167.86;2174048;81;20976;-82
2021/08/22 08:38:48;;;;;;;9.25;8.35;;;;;;;27.17;44.94;99163.77;2174554;81;21364;-81
2021/08/22 08:41:51;;;;;;;9.75;7.67;;;;;;;26.99;44.71;99159.34;2174748;81;20972;-83
2021/08/22 08:44:51;;;;;;;9.60;8.05;;;;;;;27.05;44.95;99158.16;2174540;82;21056;-82
2021/08/22 08:47:53;;;;;;;11.65;7.55;;;;;;;27.00;44.28;99163.75;2174522;82;21024;-82
2021/08/22 08:50:54;;;;;;;8.83;8.03;;;;;;;27.16;44.42;99164.72;2174825;82;21419;-82
2021/08/22 08:53:54;;;;;;;8.90;8.00;;;;;;;27.44;44.14;99161.48;2175106;81;21019;-82
2021/08/22 08:56:55;;;;;;;8.65;7.87;;;;;;;27.65;43.56;99163.55;2174005;82;21005;-81
2021/08/22 08:59:55;;;;;;;9.60;8.68;;;;;;;27.68;41.76;99159.37;2174613;81;20937;-81
2021/08/22 09:02:56;;;;;;;9.23;8.43;;;;;;;27.52;43.08;99165.98;2174338;81;20952;-81
2021/08/22 09:05:56;;;;;;;8.53;7.83;;;;;;;27.56;42.89;99165.34;2174549;81;20960;-81
2021/08/22 09:08:57;;;;;;;9.40;8.45;;;;;;;27.44;42.89;99164.64;2174560;81;20933;-82
2021/08/22 09:11:57;;;;;;;8.90;8.15;;;;;;;27.28;42.41;99164.09;2174641;81;20984;-80
2021/08/22 09:14:58;;;;;;;9.23;7.78;;;;;;;27.39;41.91;99159.98;2173821;81;21008;-81
2021/08/22 09:17:58;;;;;;;8.50;7.12;;;;;;;27.31;41.94;99155.50;2173671;82;21040;-81
2021/08/22 09:20:59;;;;;;;8.88;7.95;;;;;;;27.32;41.59;99149.20;2174322;82;21008;-80
2021/08/22 09:23:59;;;;;;;7.95;7.25;;;;;;;27.26;41.26;99150.38;2174168;81;20961;-81
2021/08/22 09:27:00;;;;;;;8.88;8.03;;;;;;;27.35;41.20;99149.03;2174404;81;20977;-81
2021/08/22 09:30:00;;;;;;;8.45;7.60;;;;;;;27.44;41.21;99148.55;2174622;81;20961;-81
2021/08/22 09:33:02;;;;;;;9.45;8.35;;;;;;;27.48;41.18;99148.79;2173856;82;21011;-82
2021/08/22 09:36:02;;;;;;;8.53;7.65;;;;;;;27.47;40.49;99147.06;2173490;81;21008;-81
2021/08/22 09:39:03;;;;;;;9.38;8.03;;;;;;;27.56;40.30;99144.76;2173895;82;20980;-80
2021/08/22 09:42:03;;;;;;;8.65;7.60;;;;;;;27.66;40.54;99145.17;2173854;81;20984;-80
2021/08/22 09:45:04;;;;;;;8.73;7.92;;;;;;;27.36;40.84;99142.25;2173356;82;20964;-81
2021/08/22 09:48:04;;;;;;;8.75;8.05;;;;;;;27.36;40.79;99142.73;2187304;81;21054;-81
2021/08/22 09:51:05;;;;;;;9.58;8.20;;;;;;;27.51;40.97;99141.45;2191186;81;20948;-81
2021/08/22 09:54:05;;;;;;;7.95;7.20;;;;;;;27.60;40.47;99132.06;2190950;81;20941;-81
2021/08/22 09:57:06;;;;;;;8.18;7.37;;;;;;;27.68;40.60;99130.34;2190630;81;20996;-82
2021/08/22 10:00:06;;;;;;;8.08;7.28;;;;;;;27.46;40.69;99135.47;2191350;81;20950;-81
2021/08/22 10:03:07;;;;;;;7.70;7.00;;;;;;;27.43;40.44;99129.40;2191116;81;21043;-81
2021/08/22 10:06:07;;;;;;;7.55;6.85;;;;;;;27.58;40.51;99124.57;2191069;81;21022;-80
2021/08/22 10:09:08;;;;;;;6.62;6.03;;;;;;;27.57;39.78;99118.34;2191368;81;20952;-79
2021/08/22 10:12:08;;;;;;;7.05;6.37;;;;;;;27.60;38.27;99121.33;2191267;81;20998;-80
2021/08/22 10:15:09;;;;;;;7.47;6.72;;;;;;;27.68;38.18;99120.95;2191250;81;20972;-80
2021/08/22 10:18:09;;;;;;;6.70;5.62;;;;;;;27.75;37.91;99123.73;2191087;81;20982;-81
2021/08/22 10:21:11;;;;;;;5.78;5.28;;;;;;;28.02;37.52;99115.53;2191001;81;20964;-81
2021/08/22 10:24:11;;;;;;;5.30;4.90;;;;;;;27.92;36.50;99114.30;2191026;81;21019;-80
2021/08/22 10:27:12;;;;;;;5.58;5.08;;;;;;;28.15;35.97;99118.40;2190413;81;20979;-80
2021/08/22 10:30:12;;;;;;;6.28;5.78;;;;;;;28.35;35.88;99103.42;2190678;81;20988;-80
2021/08/22 10:33:13;;;;;;;6.35;4.75;;;;;;;28.22;35.66;99109.05;2190594;81;20925;-80
2021/08/22 10:36:14;;;;;;;6.10;5.55;;;;;;;28.21;36.43;99106.84;2190933;81;20961;-80
2021/08/22 10:39:14;;;;;;;5.30;4.58;;;;;;;28.17;35.88;99105.28;2190708;81;20940;-79
2021/08/22 10:45:17;;;;;;;5.42;5.03;;;;;;;28.41;35.28;99101.73;2175502;81;21036;-79
2021/08/22 10:48:17;;;;;;;5.47;4.97;;;;;;;28.36;35.24;99109.17;2191000;81;21047;-80
2021/08/22 10:51:18;;;;;;;8.25;5.22;;;;;;;28.54;35.08;99093.36;2189784;81;20976;-80
2021/08/22 10:54:18;;;;;;;4.92;4.53;;;;;;;28.35;35.43;99098.05;2190883;81;20956;-81
2021/08/22 10:57:19;;;;;;;6.90;4.55;;;;;;;28.19;35.15;99093.13;2190642;81;20995;-81
2021/08/22 11:00:20;;;;;;;6.00;5.35;;;;;;;28.46;35.50;99094.27;2191024;81;21324;-80
2021/08/22 11:03:21;;;;;;;5.92;5.40;;;;;;;28.44;35.74;99093.97;2191234;81;21016;-80
2021/08/22 11:06:21;;;;;;;5.72;5.22;;;;;;;28.39;35.45;99092.89;2190987;81;20955;-80
2021/08/22 11:09:22;;;;;;;6.22;5.30;;;;;;;28.42;36.00;99096.75;2191009;81;20992;-80
2021/08/22 11:12:22;;;;;;;6.03;5.12;;;;;;;28.53;36.43;99084.91;2189957;81;21032;-80
2021/08/22 11:15:23;;;;;;;7.55;5.10;;;;;;;28.78;35.94;99078.15;2190631;81;21051;-81
2021/08/22 11:18:24;;;;;;;5.75;5.30;;;;;;;28.77;35.50;99076.42;2190633;81;21039;-80
2021/08/22 11:21:25;;;;;;;10.88;6.15;;;;;;;28.41;36.20;99074.88;2190787;81;21027;-80
2021/08/22 11:24:26;;;;;;;6.15;5.55;;;;;;;28.35;36.68;99078.39;2190309;81;20956;-80
2021/08/22 11:27:26;;;;;;;9.35;5.05;;;;;;;28.45;36.14;99079.13;2190892;81;20964;-81
2021/08/22 11:30:27;;;;;;;6.70;4.37;;;;;;;28.42;35.98;99073.92;2191070;81;20955;-80
2021/08/22 11:33:28;;;;;;;4.83;4.05;;;;;;;28.54;33.98;99074.56;2190778;81;20948;-80
2021/08/22 11:36:28;;;;;;;4.72;4.42;;;;;;;28.85;33.63;99076.86;2190977;81;21051;-81
2021/08/22 11:39:30;;;;;;;4.17;3.87;;;;;;;28.99;32.34;99081.42;2191363;81;20964;-80
2021/08/22 11:42:30;;;;;;;4.70;4.30;;;;;;;28.89;31.41;99079.76;2191143;81;21055;-79
2021/08/22 11:45:31;;;;;;;4.72;4.33;;;;;;;28.75;31.56;99080.53;2190407;81;20964;-80
2021/08/22 11:48:32;;;;;;;4.87;4.47;;;;;;;28.90;32.07;99082.83;2175131;81;21031;-80
2021/08/22 11:51:32;;;;;;;5.30;4.45;;;;;;;29.29;31.88;99081.39;2174022;81;20988;-80
2021/08/22 11:54:33;;;;;;;4.92;4.53;;;;;;;29.46;30.65;99075.88;2174306;81;20977;-79
2021/08/22 11:57:33;;;;;;;4.83;4.37;;;;;;;29.23;30.57;99071.02;2174331;82;21012;-79
2021/08/22 12:00:37;;;;;;;5.03;4.53;;;;;;;29.11;30.89;99067.25;2174490;82;21363;-80
2021/08/22 12:03:37;;;;;;;7.37;4.50;;;;;;;28.76;31.25;99070.66;2174221;81;20948;-79
2021/08/22 12:06:38;;;;;;;5.28;4.87;;;;;;;28.78;31.88;99072.30;2174345;82;20949;-80
2021/08/22 12:09:38;;;;;;;5.25;4.75;;;;;;;28.55;31.80;99075.42;2174748;81;20968;-80
2021/08/22 12:12:39;;;;;;;4.70;4.30;;;;;;;28.48;32.61;99069.55;2174333;82;21019;-80
2021/08/22 12:15:40;;;;;;;5.05;4.65;;;;;;;28.43;32.31;99070.29;2174932;81;20945;-81
2021/08/22 12:18:40;;;;;;;5.92;4.45;;;;;;;28.25;32.66;99070.47;2174151;82;21016;-82
2021/08/22 12:21:41;;;;;;;11.57;4.85;;;;;;;28.21;32.79;99062.56;2174179;81;20953;-82
2021/08/22 12:24:41;;;;;;;6.10;5.17;;;;;;;28.42;32.94;99067.69;2174247;81;20988;-83
2021/08/22 12:27:42;;;;;;;4.83;4.42;;;;;;;28.61;32.93;99056.75;2174073;81;20973;-80
2021/08/22 12:30:42;;;;;;;5.00;4.50;;;;;;;28.78;32.86;99055.31;2173997;81;20961;-81
2021/08/22 12:33:43;;;;;;;4.87;4.45;;;;;;;29.17;32.52;99045.38;2174576;82;21340;-80
2021/08/22 12:36:43;;;;;;;5.22;4.72;;;;;;;28.94;31.87;99053.48;2174163;82;20984;-78
2021/08/22 12:39:45;;;;;;;5.67;5.17;;;;;;;28.89;31.81;99046.17;2173859;82;21029;-79
2021/08/22 12:42:45;;;;;;;5.03;4.72;;;;;;;28.71;31.78;99041.38;2174198;81;20949;-82
2021/08/22 12:45:46;;;;;;;5.28;4.87;;;;;;;28.63;32.38;99044.12;2174413;81;21007;-80
2021/08/22 12:48:46;;;;;;;4.72;4.33;;;;;;;28.46;32.75;99041.92;2174221;81;21452;-79
2021/08/22 12:51:47;;;;;;;5.58;5.08;;;;;;;28.21;33.28;99038.88;2174388;81;20949;-80
2021/08/22 12:54:47;;;;;;;6.30;5.45;;;;;;;28.15;33.87;99035.20;2174403;82;21036;-80
2021/08/22 12:57:48;;;;;;;5.72;5.25;;;;;;;28.36;33.70;99039.85;2174437;81;21313;-80
2021/08/22 13:00:48;;;;;;;5.08;4.70;;;;;;;28.47;33.49;99032.91;2174557;81;20921;-80
2021/08/22 13:03:49;;;;;;;5.53;4.92;;;;;;;28.55;33.03;99031.13;2174815;81;20937;-80
2021/08/22 13:06:49;;;;;;;5.20;4.80;;;;;;;28.57;32.66;99032.37;2174468;82;20913;-81
2021/08/22 13:09:50;;;;;;;5.85;5.20;;;;;;;28.68;32.75;99026.79;2174775;82;20933;-80
2021/08/22 13:12:50;;;;;;;5.45;5.05;;;;;;;28.86;33.14;99027.55;2174116;82;21040;-80
2021/08/22 13:15:51;;;;;;;8.48;5.45;;;;;;;28.88;32.95;99031.01;2174784;81;20976;-80
2021/08/22 13:18:51;;;;;;;5.40;4.90;;;;;;;28.83;32.96;99024.56;2174183;82;21035;-80
2021/08/22 13:21:55;;;;;;;6.45;5.15;;;;;;;28.75;33.61;99028.63;2174033;82;20965;-80
2021/08/22 13:24:56;;;;;;;5.28;4.87;;;;;;;28.82;33.88;99021.46;2174142;82;20961;-80
2021/08/22 13:27:56;;;;;;;5.92;4.95;;;;;;;28.88;33.78;99019.40;2173825;82;21012;-80
2021/08/22 13:30:57;;;;;;;5.25;4.75;;;;;;;28.93;33.37;99022.20;2173834;81;20949;-80
2021/08/22 13:33:58;;;;;;;5.15;4.70;;;;;;;29.09;32.41;99014.93;2174293;81;20949;-80
2021/08/22 13:36:58;;;;;;;5.12;4.72;;;;;;;29.27;32.23;99017.45;2173822;81;21453;-80
2021/08/22 13:39:59;;;;;;;4.92;4.53;;;;;;;29.34;32.20;99017.45;2174014;81;21392;-79
2021/08/22 13:42:59;;;;;;;4.22;3.92;;;;;;;29.47;31.67;99012.59;2173699;81;20964;-80
2021/08/22 13:46:00;;;;;;;5.00;4.60;;;;;;;29.57;31.45;99006.66;2173988;82;21024;-80
2021/08/22 13:49:02;;;;;;;5.22;4.83;;;;;;;29.40;31.67;99004.97;2175132;82;21001;-80
2021/08/22 13:52:02;;;;;;;8.55;5.03;;;;;;;29.18;31.93;99001.41;2175394;81;20984;-80
2021/08/22 13:55:03;;;;;;;4.97;4.58;;;;;;;29.02;32.32;99004.17;2174869;81;21024;-79
2021/08/22 13:58:04;;;;;;;4.90;4.40;;;;;;;28.88;32.65;99001.45;2174380;82;20973;-80
2021/08/22 14:01:04;;;;;;;4.60;4.20;;;;;;;28.59;32.73;98995.55;2174768;82;20996;-80
2021/08/22 14:04:05;;;;;;;5.03;4.70;;;;;;;28.43;33.14;98994.25;2175335;82;21011;-80
2021/08/22 14:07:05;;;;;;;5.30;4.80;;;;;;;28.29;33.47;98985.66;2175086;82;20929;-80
2021/08/22 14:10:06;;;;;;;7.85;4.45;;;;;;;28.29;33.80;98985.66;2174012;81;20913;-80